createdAt,value
2022-09-07T00:01:05.936Z,17.90
2022-09-07T00:03:34.360Z,19.87
2022-09-07T00:06:07.828Z,18.23
2022-09-07T00:08:35.994Z,25.08
2022-09-07T00:11:06.140Z,24.05
2022-09-07T00:13:36.448Z,24.23
2022-09-07T00:16:10.201Z,28.23
2022-09-07T00:18:40.340Z,27.45
2022-09-07T00:21:12.761Z,26.83
2022-09-07T00:23:40.504Z,28.15
2022-09-07T00:26:11.573Z,25.95
2022-09-07T00:28:39.641Z,24.47
2022-09-07T00:31:19.063Z,26.10
2022-09-07T00:33:49.156Z,25.00
2022-09-07T00:36:18.547Z,22.30
2022-09-07T00:38:46.628Z,23.10
2022-09-07T00:41:15.026Z,25.20
2022-09-07T00:43:46.935Z,20.63
2022-09-07T00:46:26.886Z,22.70
2022-09-07T00:49:08.984Z,20.92
2022-09-07T00:51:42.268Z,18.27
2022-09-07T00:54:15.539Z,19.60
2022-09-07T00:56:45.692Z,16.02
2022-09-07T00:59:19.662Z,18.40
2022-09-07T01:01:47.551Z,18.67
2022-09-07T01:04:16.346Z,18.05
2022-09-07T01:06:44.456Z,20.63
2022-09-07T01:09:16.876Z,16.90
2022-09-07T01:11:50.868Z,19.83
2022-09-07T01:14:23.090Z,21.67
2022-09-07T01:16:59.614Z,19.40
2022-09-07T01:19:27.178Z,18.03
2022-09-07T01:22:35.503Z,22.23
2022-09-07T01:25:11.011Z,23.13
2022-09-07T01:27:47.657Z,21.10
2022-09-07T01:30:19.537Z,24.70
2022-09-07T01:32:56.517Z,23.73
2022-09-07T01:35:39.120Z,22.58
2022-09-07T01:38:12.630Z,20.63
2022-09-07T01:40:57.495Z,24.08
2022-09-07T01:43:44.319Z,24.42
2022-09-07T01:46:34.809Z,23.27
2022-09-07T01:49:19.422Z,23.15
2022-09-07T01:51:55.488Z,27.05
2022-09-07T01:54:35.390Z,26.77
2022-09-07T01:57:08.351Z,27.95
2022-09-07T01:59:44.729Z,26.90
2022-09-07T02:02:18.211Z,27.35
2022-09-07T02:04:55.082Z,23.88
2022-09-07T02:07:28.883Z,25.23
2022-09-07T02:10:02.780Z,25.58
2022-09-07T02:12:40.593Z,28.53
2022-09-07T02:15:20.466Z,23.70
2022-09-07T02:17:58.633Z,27.10
2022-09-07T02:20:32.186Z,26.88
2022-09-07T02:23:04.782Z,35.30
2022-09-07T02:25:45.369Z,24.40
2022-09-07T02:28:17.817Z,24.88
2022-09-07T02:30:45.939Z,25.13
2022-09-07T02:33:13.869Z,22.13
2022-09-07T02:35:41.618Z,22.58
2022-09-07T02:38:09.253Z,21.57
2022-09-07T02:40:36.837Z,23.83
2022-09-07T02:43:07.788Z,26.25
2022-09-07T02:46:12.753Z,25.88
2022-09-07T02:48:56.382Z,23.10
2022-09-07T02:51:29.709Z,27.13
2022-09-07T02:54:12.304Z,27.00
2022-09-07T02:56:52.275Z,26.50
2022-09-07T02:59:49.146Z,27.90
2022-09-07T03:02:43.397Z,30.92
2022-09-07T03:05:36.820Z,28.57
2022-09-07T03:08:11.907Z,31.52
2022-09-07T03:10:41.100Z,29.50
2022-09-07T03:13:09.131Z,26.20
2022-09-07T03:15:36.678Z,27.50
2022-09-07T03:18:04.391Z,28.20
2022-09-07T03:20:31.917Z,28.60
2022-09-07T03:22:59.535Z,32.92
2022-09-07T03:25:27.045Z,30.80
2022-09-07T03:27:54.652Z,31.40
2022-09-07T03:30:22.165Z,28.30
2022-09-07T03:32:49.848Z,28.70
2022-09-07T03:35:17.875Z,26.55
2022-09-07T03:37:45.425Z,28.17
2022-09-07T03:40:14.960Z,26.48
2022-09-07T03:42:43.167Z,29.83
2022-09-07T03:45:11.201Z,30.75
2022-09-07T03:47:39.219Z,31.65
2022-09-07T03:50:07.737Z,28.20
2022-09-07T03:52:36.349Z,25.50
2022-09-07T03:55:05.076Z,28.50
2022-09-07T03:57:32.633Z,28.10
2022-09-07T04:00:00.223Z,26.52
2022-09-07T04:02:27.994Z,29.02
2022-09-07T04:04:55.552Z,29.35
2022-09-07T04:07:23.142Z,23.70
2022-09-07T04:09:51.527Z,25.45
2022-09-07T04:12:19.119Z,23.45
2022-09-07T04:14:46.673Z,26.50
2022-09-07T04:17:14.291Z,26.38
2022-09-07T04:19:41.879Z,23.60
2022-09-07T04:22:09.423Z,27.17
2022-09-07T04:24:37.446Z,24.10
2022-09-07T04:27:04.975Z,25.45
2022-09-07T04:29:32.460Z,26.55
2022-09-07T04:32:00.094Z,22.53
2022-09-07T04:34:27.640Z,19.25
2022-09-07T04:36:55.179Z,22.33
2022-09-07T04:39:23.067Z,22.23
2022-09-07T04:41:50.598Z,21.30
2022-09-07T04:44:18.132Z,17.50
2022-09-07T04:46:45.752Z,21.20
2022-09-07T04:49:13.813Z,19.38
2022-09-07T04:51:42.989Z,24.13
2022-09-07T04:54:11.132Z,19.50
2022-09-07T04:56:38.625Z,20.90
2022-09-07T04:59:06.289Z,24.90
2022-09-07T05:01:33.946Z,21.15
2022-09-07T05:04:02.582Z,23.40
2022-09-07T05:06:32.222Z,20.13
2022-09-07T05:09:00.335Z,23.10
2022-09-07T05:11:29.875Z,20.50
2022-09-07T05:13:59.826Z,16.45
2022-09-07T05:16:28.108Z,16.27
2022-09-07T05:19:01.696Z,15.43
2022-09-07T05:21:32.122Z,15.00
2022-09-07T05:24:00.896Z,13.55
2022-09-07T05:26:31.541Z,15.35
2022-09-07T05:31:51.890Z,15.48
2022-09-07T05:34:35.018Z,17.73
2022-09-07T05:37:03.350Z,18.67
2022-09-07T05:39:31.477Z,16.23
2022-09-07T05:41:59.131Z,17.05
2022-09-07T05:47:10.127Z,15.73
2022-09-07T05:49:37.699Z,15.65
2022-09-07T05:52:09.690Z,15.98
2022-09-07T05:54:37.747Z,18.10
2022-09-07T05:57:05.552Z,15.00
2022-09-07T05:59:33.686Z,16.47
2022-09-07T06:02:01.527Z,14.77
2022-09-07T06:04:29.150Z,14.57
2022-09-07T06:07:20.623Z,18.15
2022-09-07T06:12:32.158Z,15.93
2022-09-07T06:15:01.624Z,16.65
2022-09-07T06:17:29.683Z,20.90
2022-09-07T06:19:57.806Z,19.70
2022-09-07T06:22:28.931Z,18.20
2022-09-07T06:24:59.108Z,20.10
2022-09-07T06:27:26.813Z,19.63
2022-09-07T06:29:54.642Z,19.23
2022-09-07T06:35:11.509Z,21.63
2022-09-07T06:37:39.352Z,19.83
2022-09-07T06:40:10.702Z,21.23
2022-09-07T06:42:38.852Z,21.15
2022-09-07T06:45:06.954Z,21.02
2022-09-07T06:47:34.851Z,21.17
2022-09-07T06:50:02.443Z,23.03
2022-09-07T06:55:17.864Z,20.65
2022-09-07T06:57:45.461Z,22.30
2022-09-07T07:00:13.580Z,22.50
2022-09-07T07:02:41.151Z,20.93
2022-09-07T07:05:09.294Z,22.48
2022-09-07T07:07:36.795Z,19.48
2022-09-07T07:10:04.768Z,16.80
2022-09-07T07:15:04.793Z,19.20
2022-09-07T07:17:32.416Z,15.77
2022-09-07T07:19:59.995Z,15.95
2022-09-07T07:22:45.996Z,16.33
2022-09-07T07:25:15.090Z,18.90
2022-09-07T07:27:43.011Z,16.47
2022-09-07T07:30:11.196Z,16.92
2022-09-07T07:32:39.398Z,16.67
2022-09-07T07:35:12.004Z,15.60
2022-09-07T07:37:39.825Z,14.15
2022-09-07T07:42:41.843Z,12.90
2022-09-07T07:47:58.620Z,15.30
2022-09-07T07:50:34.134Z,15.40
2022-09-07T07:55:49.816Z,13.98
2022-09-07T07:58:17.660Z,12.68
2022-09-07T08:01:00.699Z,14.05
2022-09-07T08:03:29.257Z,11.35
2022-09-07T08:05:57.020Z,10.00
2022-09-07T08:08:24.687Z,13.07
2022-09-07T08:10:53.069Z,8.32
2022-09-07T08:13:21.631Z,12.15
2022-09-07T08:15:49.306Z,7.93
2022-09-07T08:18:17.794Z,9.20
2022-09-07T08:20:45.316Z,9.35
2022-09-07T08:23:12.876Z,9.77
2022-09-07T08:25:50.675Z,8.27
2022-09-07T08:28:19.001Z,8.50
2022-09-07T08:30:46.506Z,7.97
2022-09-07T08:33:14.297Z,5.97
2022-09-07T08:35:41.840Z,8.07
2022-09-07T08:38:09.620Z,6.53
2022-09-07T08:40:38.702Z,9.43
2022-09-07T08:43:28.801Z,7.83
2022-09-07T08:46:04.830Z,6.65
2022-09-07T08:48:35.239Z,6.47
2022-09-07T08:51:24.585Z,11.43
2022-09-07T08:53:52.610Z,8.82
2022-09-07T08:56:39.302Z,7.73
2022-09-07T08:59:16.641Z,5.75
2022-09-07T09:02:27.000Z,6.47
2022-09-07T09:04:32.673Z,7.78
2022-09-07T09:07:10.061Z,5.93
2022-09-07T09:09:40.449Z,5.27
2022-09-07T09:12:32.353Z,7.97
2022-09-07T09:15:23.542Z,10.45
2022-09-07T09:18:14.945Z,6.85
2022-09-07T09:21:00.124Z,9.85
2022-09-07T09:23:34.475Z,9.30
2022-09-07T09:26:10.535Z,10.18
2022-09-07T09:28:39.809Z,6.63
2022-09-07T09:31:17.204Z,7.88
2022-09-07T09:34:05.032Z,6.00
2022-09-07T09:36:44.491Z,7.37
2022-09-07T09:39:35.231Z,10.00
2022-09-07T09:42:11.949Z,9.00
2022-09-07T09:44:40.225Z,11.02
2022-09-07T09:47:30.237Z,7.55
2022-09-07T09:50:01.569Z,9.77
2022-09-07T09:52:41.772Z,7.82
2022-09-07T09:55:34.275Z,7.68
2022-09-07T10:01:25.256Z,6.63
2022-09-07T10:06:26.584Z,10.27
2022-09-07T10:08:59.830Z,7.97
2022-09-07T10:12:07.652Z,7.38
2022-09-07T10:14:47.384Z,6.65
2022-09-07T10:17:25.589Z,5.87
2022-09-07T10:19:54.296Z,8.07
2022-09-07T10:22:30.110Z,6.82
2022-09-07T10:24:58.478Z,5.28
2022-09-07T10:27:34.253Z,9.23
2022-09-07T10:30:06.866Z,6.20
2022-09-07T10:32:37.406Z,9.55
2022-09-07T10:35:07.730Z,7.32
2022-09-07T10:37:51.472Z,6.93
2022-09-07T10:40:35.343Z,7.95
2022-09-07T10:43:21.411Z,5.77
2022-09-07T10:45:52.265Z,8.07
2022-09-07T10:48:35.836Z,7.47
2022-09-07T10:51:14.330Z,7.45
2022-09-07T10:53:45.158Z,5.55
2022-09-07T10:56:26.800Z,5.70
2022-09-07T10:59:03.908Z,6.50
2022-09-07T11:01:40.837Z,10.18
2022-09-07T11:04:26.960Z,6.75
2022-09-07T11:07:23.872Z,10.68
2022-09-07T11:10:13.068Z,7.60
2022-09-07T11:12:44.474Z,6.70
2022-09-07T11:15:23.775Z,5.82
2022-09-07T11:18:17.981Z,7.03
2022-09-07T11:20:55.100Z,6.13
2022-09-07T11:23:33.091Z,9.10
2022-09-07T11:26:39.628Z,6.07
2022-09-07T11:29:36.212Z,11.30
2022-09-07T11:32:07.428Z,7.20
2022-09-07T11:35:00.142Z,5.95
2022-09-07T11:37:46.603Z,4.80
2022-09-07T11:40:21.657Z,7.28
2022-09-07T11:42:59.764Z,6.25
2022-09-07T11:45:52.465Z,5.53
2022-09-07T11:48:31.047Z,5.28
2022-09-07T11:51:24.712Z,8.53
2022-09-07T11:54:02.362Z,5.18
2022-09-07T11:56:36.924Z,5.32
2022-09-07T11:59:07.038Z,7.18
2022-09-07T12:01:58.320Z,6.22
2022-09-07T12:04:44.298Z,7.10
2022-09-07T12:07:34.737Z,7.60
2022-09-07T12:10:28.274Z,6.35
2022-09-07T12:12:56.763Z,6.15
2022-09-07T12:16:05.772Z,6.63
2022-09-07T12:19:08.693Z,7.30
2022-09-07T12:21:42.405Z,4.85
2022-09-07T12:24:32.402Z,6.15
2022-09-07T12:27:01.368Z,5.57
2022-09-07T12:29:30.821Z,4.90
2022-09-07T12:32:52.610Z,4.60
2022-09-07T12:34:57.961Z,6.38
2022-09-07T12:37:40.071Z,5.90
2022-09-07T12:40:33.311Z,6.47
2022-09-07T12:43:13.141Z,7.47
2022-09-07T12:45:40.635Z,7.67
2022-09-07T12:48:17.132Z,6.57
2022-09-07T12:51:03.260Z,4.63
2022-09-07T12:53:34.609Z,5.82
2022-09-07T12:56:26.201Z,5.97
2022-09-07T12:59:08.097Z,6.87
2022-09-07T13:01:51.555Z,5.35
2022-09-07T13:04:53.260Z,5.65
2022-09-07T13:08:07.207Z,6.15
2022-09-07T13:10:39.436Z,6.43
2022-09-07T13:16:29.537Z,8.60
2022-09-07T13:19:01.995Z,6.07
2022-09-07T13:21:33.144Z,5.82
2022-09-07T13:27:11.644Z,5.40
2022-09-07T13:29:46.668Z,6.05
2022-09-07T13:33:07.999Z,6.82
2022-09-07T13:35:25.436Z,7.88
2022-09-07T13:37:59.584Z,7.68
2022-09-07T13:40:30.332Z,7.10
2022-09-07T13:42:59.352Z,5.80
2022-09-07T13:45:36.675Z,7.20
2022-09-07T13:48:14.819Z,6.32
2022-09-07T13:50:52.384Z,12.68
2022-09-07T13:53:36.378Z,10.97
2022-09-07T13:56:41.402Z,10.93
2022-09-07T13:59:23.062Z,14.43
2022-09-07T14:01:51.555Z,10.00
2022-09-07T14:04:35.478Z,9.70
2022-09-07T14:07:02.988Z,8.67
2022-09-07T14:09:30.808Z,13.63
2022-09-07T14:11:58.741Z,8.02
2022-09-07T14:14:31.053Z,7.25
2022-09-07T14:17:02.044Z,8.23
2022-09-07T14:19:39.970Z,7.57
2022-09-07T14:22:22.315Z,9.82
2022-09-07T14:24:55.148Z,9.30
2022-09-07T14:27:33.069Z,9.55
2022-09-07T14:30:20.208Z,10.93
2022-09-07T14:32:53.166Z,9.00
2022-09-07T14:35:24.695Z,9.25
2022-09-07T14:37:53.316Z,12.38
2022-09-07T14:40:23.996Z,10.77
2022-09-07T14:42:54.138Z,7.22
2022-09-07T14:45:26.376Z,11.03
2022-09-07T14:47:55.635Z,6.78
2022-09-07T14:50:27.339Z,8.50
2022-09-07T14:55:46.434Z,7.15
2022-09-07T14:58:13.926Z,7.97
2022-09-07T15:00:45.994Z,7.28
2022-09-07T15:03:35.855Z,9.98
2022-09-07T15:06:03.801Z,8.00
2022-09-07T15:08:45.606Z,6.93
2022-09-07T15:11:39.983Z,5.23
2022-09-07T15:14:18.041Z,8.38
2022-09-07T15:19:50.473Z,7.22
2022-09-07T15:22:19.271Z,6.25
2022-09-07T15:24:48.132Z,6.73
2022-09-07T15:27:30.053Z,7.05
2022-09-07T15:29:57.629Z,8.65
2022-09-07T15:32:25.217Z,7.85
2022-09-07T15:34:52.851Z,7.00
2022-09-07T15:41:10.581Z,7.72
2022-09-07T15:43:34.144Z,8.60
2022-09-07T15:46:03.555Z,8.23
2022-09-07T15:48:31.354Z,8.55
2022-09-07T15:52:04.681Z,7.07
2022-09-07T15:57:47.696Z,5.30
2022-09-07T15:59:31.685Z,5.53
2022-09-07T16:01:59.793Z,9.13
2022-09-07T16:04:27.635Z,7.00
2022-09-07T16:06:55.280Z,6.18
2022-09-07T16:09:23.320Z,7.75
2022-09-07T16:11:51.297Z,6.90
2022-09-07T16:14:19.046Z,7.25
2022-09-07T16:19:36.060Z,7.75
2022-09-07T16:22:04.022Z,6.78
2022-09-07T16:24:31.694Z,10.90
2022-09-07T16:26:59.228Z,7.70
2022-09-07T16:29:26.789Z,6.63
2022-09-07T16:34:41.857Z,8.68
2022-09-07T16:37:09.363Z,8.68
2022-09-07T16:39:37.224Z,7.88
2022-09-07T16:42:05.052Z,8.20
2022-09-07T16:44:35.061Z,7.13
2022-09-07T16:47:04.434Z,9.13
2022-09-07T16:49:32.203Z,7.82
2022-09-07T16:51:59.849Z,7.53
2022-09-07T16:54:27.413Z,8.43
2022-09-07T16:56:54.924Z,7.20
2022-09-07T16:59:26.806Z,8.32
2022-09-07T17:01:54.458Z,6.68
2022-09-07T17:04:22.236Z,7.90
2022-09-07T17:06:52.049Z,9.00
2022-09-07T17:09:20.640Z,10.45
2022-09-07T17:11:48.209Z,9.35
2022-09-07T17:14:16.008Z,7.50
2022-09-07T17:16:44.230Z,10.10
2022-09-07T17:19:30.044Z,8.80
2022-09-07T17:21:59.812Z,6.75
2022-09-07T17:24:27.458Z,7.90
2022-09-07T17:26:55.095Z,8.25
2022-09-07T17:29:22.692Z,7.63
2022-09-07T17:34:37.792Z,6.95
2022-09-07T17:37:05.467Z,7.57
2022-09-07T17:39:33.043Z,8.95
2022-09-07T17:42:01.109Z,8.35
2022-09-07T17:44:33.301Z,12.57
2022-09-07T17:47:03.645Z,9.50
2022-09-07T17:49:31.317Z,11.57
2022-09-07T17:52:01.057Z,8.00
2022-09-07T17:54:29.043Z,9.35
2022-09-07T17:56:57.013Z,12.80
2022-09-07T18:02:13.964Z,8.48
2022-09-07T18:04:42.725Z,9.27
2022-09-07T18:07:10.571Z,12.95
2022-09-07T18:09:38.318Z,6.87
2022-09-07T18:12:06.447Z,6.63
2022-09-07T18:14:34.045Z,9.50
2022-09-07T18:17:01.908Z,8.02
2022-09-07T18:19:29.481Z,8.52
2022-09-07T18:21:57.013Z,8.20
2022-09-07T18:24:24.666Z,10.52
2022-09-07T18:26:53.930Z,10.43
2022-09-07T18:29:33.980Z,8.68
2022-09-07T18:32:07.497Z,8.88
2022-09-07T18:34:36.488Z,9.60
2022-09-07T18:37:04.706Z,10.38
2022-09-07T18:39:33.574Z,10.98
2022-09-07T18:42:01.501Z,12.48
2022-09-07T18:47:23.287Z,11.67
2022-09-07T18:49:55.543Z,12.15
2022-09-07T18:55:10.969Z,14.80
2022-09-07T18:57:38.634Z,12.85
2022-09-07T19:00:07.960Z,12.13
2022-09-07T19:02:35.877Z,11.00
2022-09-07T19:07:51.899Z,9.90
2022-09-07T19:10:19.504Z,9.50
2022-09-07T19:12:47.246Z,5.37
2022-09-07T19:15:15.026Z,7.78
2022-09-07T19:17:42.887Z,11.07
2022-09-07T19:20:10.724Z,10.90
2022-09-07T19:22:39.047Z,11.45
2022-09-07T19:25:06.770Z,9.93
2022-09-07T19:27:34.395Z,9.05
2022-09-07T19:30:01.992Z,7.30
2022-09-07T19:32:29.857Z,6.20
2022-09-07T19:34:57.418Z,8.95
2022-09-07T19:37:25.767Z,7.73
2022-09-07T19:39:56.959Z,9.05
2022-09-07T19:42:25.601Z,9.23
2022-09-07T19:44:54.212Z,10.75
2022-09-07T19:47:23.330Z,9.85
2022-09-07T19:49:52.314Z,8.17
2022-09-07T19:52:19.866Z,9.48
2022-09-07T19:54:47.423Z,14.55
2022-09-07T19:57:14.926Z,10.35
2022-09-07T19:59:42.489Z,8.25
2022-09-07T20:02:10.491Z,8.80
2022-09-07T20:04:38.161Z,12.00
2022-09-07T20:07:06.668Z,7.40
2022-09-07T20:09:34.196Z,11.85
2022-09-07T20:12:03.833Z,8.50
2022-09-07T20:14:31.361Z,8.80
2022-09-07T20:16:58.951Z,8.40
2022-09-07T20:19:26.587Z,16.15
2022-09-07T20:21:57.275Z,11.73
2022-09-07T20:24:25.273Z,8.80
2022-09-07T20:26:52.793Z,12.40
2022-09-07T20:29:28.921Z,11.50
2022-09-07T20:32:01.230Z,14.13
2022-09-07T20:34:29.239Z,12.27
2022-09-07T20:36:57.102Z,13.80
2022-09-07T20:39:24.827Z,12.50
2022-09-07T20:41:52.548Z,14.93
2022-09-07T20:44:20.234Z,13.30
2022-09-07T20:46:47.837Z,13.13
2022-09-07T20:49:15.461Z,12.98
2022-09-07T20:51:43.012Z,13.90
2022-09-07T20:54:10.801Z,15.02
2022-09-07T20:56:38.280Z,13.30
2022-09-07T20:59:06.892Z,18.20
2022-09-07T21:01:35.250Z,13.43
2022-09-07T21:04:04.095Z,15.67
2022-09-07T21:06:32.084Z,13.90
2022-09-07T21:09:00.092Z,21.38
2022-09-07T21:11:33.193Z,14.68
2022-09-07T21:14:00.750Z,19.45
2022-09-07T21:16:29.000Z,12.97
2022-09-07T21:18:58.330Z,13.90
2022-09-07T21:21:27.424Z,16.73
2022-09-07T21:23:56.936Z,17.10
2022-09-07T21:26:25.509Z,19.55
2022-09-07T21:28:58.604Z,14.10
2022-09-07T21:31:27.691Z,18.83
2022-09-07T21:33:57.199Z,20.88
2022-09-07T21:36:25.604Z,19.08
2022-09-07T21:38:54.348Z,18.38
2022-09-07T21:41:23.986Z,20.43
2022-09-07T21:43:59.142Z,15.80
2022-09-07T21:46:29.371Z,16.60
2022-09-07T21:48:58.360Z,20.08
2022-09-07T21:51:27.411Z,20.65
2022-09-07T21:53:56.751Z,23.77
2022-09-07T21:56:24.587Z,19.27
2022-09-07T21:58:56.615Z,22.73
2022-09-07T22:01:26.159Z,18.75
2022-09-07T22:03:59.691Z,21.25
2022-09-07T22:06:28.251Z,20.00
2022-09-07T22:08:56.086Z,20.92
2022-09-07T22:11:25.080Z,18.17
2022-09-07T22:13:57.623Z,21.00
2022-09-07T22:16:25.831Z,20.92
2022-09-07T22:18:53.747Z,25.80
2022-09-07T22:21:28.631Z,19.80
2022-09-07T22:24:01.848Z,20.30
2022-09-07T22:26:32.785Z,19.38
2022-09-07T22:29:00.453Z,19.85
2022-09-07T22:31:30.626Z,20.93
2022-09-07T22:34:00.091Z,18.55
2022-09-07T22:36:32.903Z,20.10
2022-09-07T22:39:03.923Z,25.15
2022-09-07T22:41:34.075Z,22.25
2022-09-07T22:44:01.830Z,18.53
2022-09-07T22:46:31.227Z,23.67
2022-09-07T22:48:59.321Z,19.15
2022-09-07T22:51:27.513Z,21.88
2022-09-07T22:53:56.050Z,21.77
2022-09-07T22:56:27.174Z,23.93
2022-09-07T22:58:57.607Z,22.48
2022-09-07T23:01:26.430Z,20.08
2022-09-07T23:03:54.552Z,23.85
2022-09-07T23:06:29.004Z,21.20
2022-09-07T23:08:58.749Z,21.27
2022-09-07T23:11:27.104Z,21.65
2022-09-07T23:13:57.083Z,19.88
2022-09-07T23:16:26.422Z,18.55
2022-09-07T23:18:55.524Z,21.08
2022-09-07T23:21:23.059Z,21.27
2022-09-07T23:23:52.644Z,26.50
2022-09-07T23:26:21.551Z,24.25
2022-09-07T23:28:53.362Z,22.60
2022-09-07T23:31:22.264Z,20.83
2022-09-07T23:33:50.214Z,24.33
2022-09-07T23:36:18.950Z,21.95
2022-09-07T23:38:46.834Z,25.05
2022-09-07T23:41:14.690Z,25.35
2022-09-07T23:43:42.697Z,20.20
2022-09-07T23:46:11.578Z,26.50
2022-09-07T23:48:39.529Z,23.25
2022-09-07T23:51:07.057Z,24.65
2022-09-07T23:53:35.072Z,25.77
2022-09-07T23:56:05.826Z,25.05
2022-09-07T23:58:33.559Z,21.87
